createdAt,value
2022-09-09T00:00:31.007Z,1.77
2022-09-09T00:01:10.119Z,3.28
2022-09-09T00:01:52.726Z,1.85
2022-09-09T00:02:29.222Z,2.10
2022-09-09T00:03:09.650Z,1.80
2022-09-09T00:03:46.306Z,2.72
2022-09-09T00:04:28.220Z,2.25
2022-09-09T00:05:03.789Z,2.15
2022-09-09T00:05:45.116Z,1.65
2022-09-09T00:06:23.578Z,1.75
2022-09-09T00:07:05.618Z,2.72
2022-09-09T00:07:47.806Z,1.50
2022-09-09T00:08:22.725Z,1.90
2022-09-09T00:09:03.272Z,2.60
2022-09-09T00:09:43.348Z,2.28
2022-09-09T00:10:23.885Z,2.28
2022-09-09T00:11:00.816Z,2.45
2022-09-09T00:11:41.132Z,1.88
2022-09-09T00:12:16.882Z,3.40
2022-09-09T00:12:58.173Z,1.27
2022-09-09T00:13:38.166Z,1.48
2022-09-09T00:14:18.768Z,1.83
2022-09-09T00:14:55.653Z,1.52
2022-09-09T00:15:35.947Z,2.17
2022-09-09T00:16:13.452Z,1.55
2022-09-09T00:16:51.421Z,1.77
2022-09-09T00:17:35.177Z,4.10
2022-09-09T00:18:16.453Z,1.58
2022-09-09T00:18:58.335Z,1.73
2022-09-09T00:19:40.989Z,5.85
2022-09-09T00:20:17.174Z,1.80
2022-09-09T00:20:58.082Z,1.75
2022-09-09T00:21:37.000Z,4.82
2022-09-09T00:22:16.833Z,1.35
2022-09-09T00:22:54.669Z,2.15
2022-09-09T00:23:30.259Z,5.05
2022-09-09T00:24:10.259Z,2.88
2022-09-09T00:24:45.233Z,3.85
2022-09-09T00:25:25.504Z,4.70
2022-09-09T00:26:06.262Z,3.38
2022-09-09T00:26:43.506Z,5.20
2022-09-09T00:27:26.318Z,5.50
2022-09-09T00:27:59.513Z,2.80
2022-09-09T00:28:35.267Z,2.58
2022-09-09T00:29:19.590Z,2.88
2022-09-09T00:29:55.856Z,3.08
2022-09-09T00:30:32.562Z,2.75
2022-09-09T00:31:14.789Z,2.20
2022-09-09T00:31:48.090Z,3.55
2022-09-09T00:32:20.201Z,2.90
2022-09-09T00:32:59.066Z,3.42
2022-09-09T00:33:32.253Z,2.42
2022-09-09T00:34:12.142Z,2.20
2022-09-09T00:34:52.880Z,3.08
2022-09-09T00:35:28.207Z,2.75
2022-09-09T00:36:01.910Z,4.30
2022-09-09T00:36:35.620Z,4.95
2022-09-09T00:37:10.479Z,4.43
2022-09-09T00:37:43.064Z,2.10
2022-09-09T00:38:18.952Z,2.00
2022-09-09T00:38:56.200Z,2.15
2022-09-09T00:39:33.657Z,2.50
2022-09-09T00:40:18.620Z,2.38
2022-09-09T00:40:53.138Z,2.00
2022-09-09T00:41:38.702Z,4.32
2022-09-09T00:42:17.284Z,4.05
2022-09-09T00:42:59.311Z,1.75
2022-09-09T00:43:36.208Z,4.00
2022-09-09T00:44:29.683Z,2.83
2022-09-09T00:45:16.876Z,2.20
2022-09-09T00:46:07.258Z,3.72
2022-09-09T00:47:06.025Z,2.10
2022-09-09T00:47:45.378Z,3.00
2022-09-09T00:48:17.407Z,3.70
2022-09-09T00:48:59.802Z,3.42
2022-09-09T00:49:44.429Z,2.55
2022-09-09T00:50:37.090Z,2.75
2022-09-09T00:51:16.257Z,2.63
2022-09-09T00:51:58.875Z,2.17
2022-09-09T00:52:41.663Z,4.47
2022-09-09T00:53:25.404Z,2.17
2022-09-09T00:54:16.549Z,1.80
2022-09-09T00:54:58.464Z,4.03
2022-09-09T00:55:41.877Z,1.73
2022-09-09T00:56:15.000Z,2.38
2022-09-09T00:56:55.797Z,2.78
2022-09-09T00:57:30.375Z,1.85
2022-09-09T00:58:02.208Z,2.42
2022-09-09T00:58:36.565Z,5.72
2022-09-09T00:59:20.317Z,2.00
2022-09-09T00:59:53.697Z,2.10
2022-09-09T01:00:29.640Z,5.93
2022-09-09T01:01:07.403Z,2.03
2022-09-09T01:01:40.400Z,1.52
2022-09-09T01:02:20.145Z,1.80
2022-09-09T01:03:11.278Z,2.67
2022-09-09T01:03:51.143Z,1.67
2022-09-09T01:04:35.554Z,1.80
2022-09-09T01:05:13.454Z,1.70
2022-09-09T01:05:52.159Z,1.60
2022-09-09T01:06:31.280Z,2.05
2022-09-09T01:07:10.188Z,1.73
2022-09-09T01:07:49.452Z,1.70
2022-09-09T01:08:37.684Z,2.95
2022-09-09T01:09:18.197Z,2.95
2022-09-09T01:09:57.250Z,1.52
2022-09-09T01:10:37.076Z,2.75
2022-09-09T01:11:15.405Z,1.75
2022-09-09T01:11:57.406Z,2.00
2022-09-09T01:12:42.662Z,3.58
2022-09-09T01:13:20.206Z,1.50
2022-09-09T01:14:02.335Z,2.10
2022-09-09T01:14:43.237Z,2.08
2022-09-09T01:15:20.679Z,1.60
2022-09-09T01:15:58.531Z,2.00
2022-09-09T01:16:33.801Z,5.13
2022-09-09T01:17:12.034Z,2.38
2022-09-09T01:17:53.729Z,1.45
2022-09-09T01:18:29.878Z,2.30
2022-09-09T01:19:03.837Z,2.08
2022-09-09T01:19:55.473Z,1.50
2022-09-09T01:20:31.040Z,2.65
2022-09-09T01:21:10.580Z,1.20
2022-09-09T01:21:55.358Z,2.10
2022-09-09T01:22:35.555Z,1.70
2022-09-09T01:23:29.406Z,3.55
2022-09-09T01:24:22.165Z,3.33
2022-09-09T01:25:16.065Z,1.55
2022-09-09T01:26:13.577Z,6.47
2022-09-09T01:26:47.839Z,1.42
2022-09-09T01:27:21.634Z,1.70
2022-09-09T01:27:57.257Z,1.60
2022-09-09T01:28:30.723Z,3.15
2022-09-09T01:29:02.730Z,2.17
2022-09-09T01:29:34.642Z,1.75
2022-09-09T01:30:11.575Z,1.60
2022-09-09T01:30:43.744Z,1.40
2022-09-09T01:31:19.037Z,1.67
2022-09-09T01:31:57.334Z,2.20
2022-09-09T01:32:44.436Z,1.90
2022-09-09T01:33:18.850Z,2.65
2022-09-09T01:33:52.060Z,1.52
2022-09-09T01:34:25.919Z,2.10
2022-09-09T01:34:57.841Z,2.55
2022-09-09T01:35:39.478Z,2.22
2022-09-09T01:36:15.053Z,1.63
2022-09-09T01:36:52.635Z,3.45
2022-09-09T01:37:24.460Z,2.67
2022-09-09T01:37:56.281Z,2.10
2022-09-09T01:38:31.795Z,2.20
2022-09-09T01:39:04.151Z,1.30
2022-09-09T01:39:37.195Z,2.20
2022-09-09T01:40:10.670Z,1.77
2022-09-09T01:40:42.535Z,1.58
2022-09-09T01:41:15.744Z,2.45
2022-09-09T01:41:48.632Z,1.60
2022-09-09T01:42:20.398Z,5.10
2022-09-09T01:42:53.134Z,3.58
2022-09-09T01:43:27.254Z,2.25
2022-09-09T01:43:59.252Z,1.73
2022-09-09T01:44:31.829Z,1.60
2022-09-09T01:45:05.984Z,2.47
2022-09-09T01:45:39.212Z,2.20
2022-09-09T01:46:13.074Z,4.95
2022-09-09T01:46:46.186Z,2.05
2022-09-09T01:47:18.517Z,2.25
2022-09-09T01:47:51.459Z,1.90
2022-09-09T01:48:24.664Z,1.65
2022-09-09T01:48:58.913Z,8.55
2022-09-09T01:49:31.878Z,1.50
2022-09-09T01:50:04.422Z,1.45
2022-09-09T01:50:37.571Z,1.73
2022-09-09T01:51:11.334Z,1.55
2022-09-09T01:51:44.617Z,1.70
2022-09-09T01:52:17.436Z,1.90
2022-09-09T01:52:53.493Z,1.60
2022-09-09T01:53:25.428Z,1.85
2022-09-09T01:53:58.170Z,1.90
2022-09-09T01:54:34.024Z,1.40
2022-09-09T01:55:07.398Z,2.40
2022-09-09T01:55:42.623Z,4.40
2022-09-09T01:56:25.851Z,3.38
2022-09-09T01:57:10.799Z,1.50
2022-09-09T01:57:52.935Z,1.50
2022-09-09T01:58:34.962Z,2.97
2022-09-09T01:59:25.702Z,1.60
2022-09-09T02:00:07.594Z,2.00
2022-09-09T02:00:45.453Z,1.70
2022-09-09T02:01:26.357Z,1.65
2022-09-09T02:02:09.483Z,1.92
2022-09-09T02:02:50.692Z,3.03
2022-09-09T02:03:26.742Z,4.10
2022-09-09T02:04:02.292Z,1.83
2022-09-09T02:04:40.253Z,1.63
2022-09-09T02:05:23.162Z,4.13
2022-09-09T02:06:05.053Z,2.22
2022-09-09T02:06:39.632Z,1.75
2022-09-09T02:07:23.137Z,1.63
2022-09-09T02:08:02.513Z,1.60
2022-09-09T02:08:40.895Z,1.40
2022-09-09T02:09:15.165Z,1.63
2022-09-09T02:09:52.612Z,2.30
2022-09-09T02:10:29.816Z,1.75
2022-09-09T02:11:07.059Z,1.27
2022-09-09T02:11:41.833Z,1.70
2022-09-09T02:12:18.720Z,1.67
2022-09-09T02:12:56.736Z,2.83
2022-09-09T02:13:33.381Z,1.48
2022-09-09T02:14:11.048Z,1.75
2022-09-09T02:14:48.341Z,2.65
2022-09-09T02:15:32.177Z,2.08
2022-09-09T02:16:09.064Z,1.55
2022-09-09T02:16:47.963Z,2.30
2022-09-09T02:17:27.530Z,3.22
2022-09-09T02:18:02.273Z,2.08
2022-09-09T02:18:39.463Z,9.23
2022-09-09T02:19:17.069Z,1.40
2022-09-09T02:19:53.853Z,2.60
2022-09-09T02:20:27.662Z,3.20
2022-09-09T02:21:01.349Z,1.35
2022-09-09T02:21:35.903Z,1.67
2022-09-09T02:22:07.735Z,1.42
2022-09-09T02:22:44.905Z,3.80
2022-09-09T02:23:17.644Z,1.48
2022-09-09T02:23:52.932Z,2.50
2022-09-09T02:24:26.944Z,1.80
2022-09-09T02:25:00.961Z,3.47
2022-09-09T02:25:36.699Z,1.23
2022-09-09T02:26:14.215Z,2.40
2022-09-09T02:26:50.328Z,2.90
2022-09-09T02:27:24.538Z,1.58
2022-09-09T02:27:59.099Z,1.88
2022-09-09T02:28:34.138Z,1.52
2022-09-09T02:29:11.500Z,3.15
2022-09-09T02:29:47.668Z,2.35
2022-09-09T02:30:21.177Z,1.77
2022-09-09T02:30:55.946Z,1.50
2022-09-09T02:31:28.445Z,1.42
2022-09-09T02:32:05.018Z,2.63
2022-09-09T02:32:40.378Z,2.60
2022-09-09T02:33:14.989Z,2.45
2022-09-09T02:33:52.147Z,1.48
2022-09-09T02:34:28.533Z,2.33
2022-09-09T02:35:06.429Z,1.73
2022-09-09T02:35:39.378Z,2.85
2022-09-09T02:36:14.306Z,2.13
2022-09-09T02:36:48.112Z,1.70
2022-09-09T02:37:22.810Z,2.67
2022-09-09T02:37:57.649Z,1.30
2022-09-09T02:38:36.071Z,4.10
2022-09-09T02:39:12.293Z,1.95
2022-09-09T02:39:45.222Z,2.15
2022-09-09T02:40:18.349Z,1.67
2022-09-09T02:40:50.221Z,1.92
2022-09-09T02:41:26.929Z,1.42
2022-09-09T02:42:01.071Z,2.38
2022-09-09T02:42:33.217Z,1.70
2022-09-09T02:43:05.325Z,2.55
2022-09-09T02:43:38.611Z,1.60
2022-09-09T02:44:12.764Z,1.77
2022-09-09T02:44:45.894Z,1.80
2022-09-09T02:45:21.201Z,2.00
2022-09-09T02:45:58.796Z,2.42
2022-09-09T02:46:59.613Z,1.48
2022-09-09T02:47:35.760Z,1.88
2022-09-09T02:48:16.036Z,2.75
2022-09-09T02:48:56.098Z,1.50
2022-09-09T02:49:37.599Z,2.78
2022-09-09T02:50:15.455Z,1.58
2022-09-09T02:50:56.956Z,1.60
2022-09-09T02:51:37.732Z,1.55
2022-09-09T02:52:17.118Z,3.83
2022-09-09T02:53:00.021Z,2.90
2022-09-09T02:53:39.459Z,2.35
2022-09-09T02:54:22.510Z,2.22
2022-09-09T02:55:03.557Z,1.77
2022-09-09T02:55:40.813Z,1.92
2022-09-09T02:56:18.403Z,1.30
2022-09-09T02:56:55.087Z,1.73
2022-09-09T02:57:31.613Z,2.80
2022-09-09T02:58:06.901Z,2.47
2022-09-09T02:58:40.653Z,1.60
2022-09-09T02:59:12.620Z,1.25
2022-09-09T02:59:46.751Z,2.30
2022-09-09T03:00:25.360Z,1.70
2022-09-09T03:00:59.541Z,1.55
2022-09-09T03:01:32.700Z,3.42
2022-09-09T03:02:05.129Z,2.53
2022-09-09T03:02:36.989Z,1.52
2022-09-09T03:03:11.030Z,1.70
2022-09-09T03:03:43.066Z,1.60
2022-09-09T03:04:15.054Z,2.17
2022-09-09T03:04:51.787Z,1.38
2022-09-09T03:05:24.499Z,2.50
2022-09-09T03:05:56.975Z,2.78
2022-09-09T03:06:29.705Z,4.28
2022-09-09T03:07:01.508Z,5.70
2022-09-09T03:07:33.737Z,2.80
2022-09-09T03:08:07.357Z,6.78
2022-09-09T03:08:39.314Z,1.92
2022-09-09T03:09:11.505Z,1.65
2022-09-09T03:09:44.273Z,1.60
2022-09-09T03:10:16.182Z,1.52
2022-09-09T03:10:48.379Z,1.67
2022-09-09T03:11:21.123Z,1.60
2022-09-09T03:11:53.074Z,1.70
2022-09-09T03:12:24.968Z,4.18
2022-09-09T03:12:59.122Z,1.60
2022-09-09T03:13:31.008Z,1.83
2022-09-09T03:14:03.353Z,2.08
2022-09-09T03:14:36.262Z,4.68
2022-09-09T03:15:09.225Z,1.27
2022-09-09T03:15:41.002Z,1.50
2022-09-09T03:16:13.848Z,2.88
2022-09-09T03:16:45.698Z,3.75
2022-09-09T03:17:17.776Z,3.28
2022-09-09T03:17:50.601Z,2.47
2022-09-09T03:18:22.381Z,1.42
2022-09-09T03:18:54.214Z,1.65
2022-09-09T03:19:26.944Z,2.58
2022-09-09T03:19:59.609Z,1.50
2022-09-09T03:20:31.959Z,1.45
2022-09-09T03:21:04.850Z,2.47
2022-09-09T03:21:36.756Z,1.88
2022-09-09T03:22:10.708Z,2.03
2022-09-09T03:22:45.911Z,1.50
2022-09-09T03:23:18.209Z,1.85
2022-09-09T03:23:49.985Z,1.90
2022-09-09T03:24:23.614Z,1.50
2022-09-09T03:24:55.427Z,4.25
2022-09-09T03:25:27.940Z,1.45
2022-09-09T03:26:00.979Z,3.15
2022-09-09T03:26:32.845Z,1.83
2022-09-09T03:27:04.885Z,1.83
2022-09-09T03:27:37.637Z,2.08
2022-09-09T03:28:10.749Z,1.73
2022-09-09T03:28:42.692Z,1.73
2022-09-09T03:29:15.685Z,2.25
2022-09-09T03:29:47.709Z,1.27
2022-09-09T03:30:19.646Z,2.47
2022-09-09T03:30:52.823Z,1.55
2022-09-09T03:31:25.028Z,2.17
2022-09-09T03:31:57.129Z,1.85
2022-09-09T03:32:29.897Z,2.67
2022-09-09T03:33:01.740Z,1.40
2022-09-09T03:33:33.605Z,1.95
2022-09-09T03:34:06.639Z,2.10
2022-09-09T03:34:39.964Z,1.45
2022-09-09T03:35:11.724Z,1.55
2022-09-09T03:35:49.544Z,2.35
2022-09-09T03:36:22.593Z,1.40
2022-09-09T03:36:54.420Z,2.97
2022-09-09T03:37:26.264Z,2.55
2022-09-09T03:37:58.047Z,1.40
2022-09-09T03:38:30.848Z,1.70
2022-09-09T03:39:04.030Z,1.60
2022-09-09T03:39:35.830Z,1.88
2022-09-09T03:40:10.830Z,1.35
2022-09-09T03:40:50.146Z,2.45
2022-09-09T03:41:24.732Z,2.00
2022-09-09T03:41:57.475Z,1.63
2022-09-09T03:42:29.272Z,1.83
2022-09-09T03:43:01.095Z,1.73
2022-09-09T03:43:35.384Z,1.67
2022-09-09T03:44:07.182Z,2.97
2022-09-09T03:44:38.987Z,2.08
2022-09-09T03:45:12.523Z,1.30
2022-09-09T03:45:48.160Z,1.80
2022-09-09T03:46:20.502Z,1.70
2022-09-09T03:46:53.238Z,3.25
2022-09-09T03:47:25.030Z,2.15
2022-09-09T03:47:57.985Z,2.25
2022-09-09T03:48:30.840Z,1.40
2022-09-09T03:49:03.250Z,2.13
2022-09-09T03:49:35.087Z,1.42
2022-09-09T03:50:10.432Z,2.03
2022-09-09T03:50:45.675Z,1.42
2022-09-09T03:51:17.786Z,1.65
2022-09-09T03:51:50.588Z,1.10
2022-09-09T03:52:25.795Z,1.50
2022-09-09T03:52:57.558Z,1.67
2022-09-09T03:53:30.674Z,2.75
2022-09-09T03:54:02.573Z,2.45
2022-09-09T03:54:34.984Z,2.35
2022-09-09T03:55:08.878Z,1.70
2022-09-09T03:55:42.389Z,2.53
2022-09-09T03:56:14.366Z,3.30
2022-09-09T03:56:47.105Z,1.55
2022-09-09T03:57:18.871Z,2.28
2022-09-09T03:57:50.647Z,2.45
2022-09-09T03:58:25.051Z,2.20
2022-09-09T03:58:58.436Z,1.40
2022-09-09T03:59:30.985Z,2.58
2022-09-09T04:00:05.954Z,1.63
2022-09-09T04:00:37.812Z,1.73
2022-09-09T04:01:14.122Z,2.45
2022-09-09T04:01:48.034Z,1.70
2022-09-09T04:02:19.913Z,1.23
2022-09-09T04:02:54.975Z,3.28
2022-09-09T04:03:28.635Z,3.15
2022-09-09T04:04:00.966Z,3.35
2022-09-09T04:04:33.154Z,2.53
2022-09-09T04:05:07.839Z,1.65
2022-09-09T04:05:43.037Z,1.60
2022-09-09T04:06:15.985Z,8.68
2022-09-09T04:06:49.318Z,23.75
2022-09-09T04:07:21.117Z,11.63
2022-09-09T04:07:52.903Z,14.52
2022-09-09T04:08:26.414Z,9.90
2022-09-09T04:08:58.338Z,3.30
2022-09-09T04:09:30.129Z,7.90
2022-09-09T04:10:03.254Z,6.75
2022-09-09T04:10:37.234Z,4.13
2022-09-09T04:11:10.563Z,2.92
2022-09-09T04:11:43.320Z,3.83
2022-09-09T04:12:15.119Z,2.05
2022-09-09T04:12:49.532Z,1.88
2022-09-09T04:13:22.497Z,4.18
2022-09-09T04:13:54.265Z,7.13
2022-09-09T04:14:29.616Z,5.32
2022-09-09T04:15:03.018Z,5.07
2022-09-09T04:15:37.509Z,4.25
2022-09-09T04:16:14.022Z,9.10
2022-09-09T04:16:45.996Z,6.75
2022-09-09T04:17:18.234Z,6.55
2022-09-09T04:17:50.950Z,3.90
2022-09-09T04:18:23.443Z,5.50
2022-09-09T04:18:56.935Z,3.05
2022-09-09T04:19:29.053Z,5.82
2022-09-09T04:20:02.062Z,2.50
2022-09-09T04:20:35.013Z,2.35
2022-09-09T04:21:07.861Z,1.60
2022-09-09T04:21:40.657Z,2.95
2022-09-09T04:22:13.420Z,2.10
2022-09-09T04:22:45.216Z,2.33
2022-09-09T04:23:19.573Z,2.47
2022-09-09T04:23:52.313Z,4.90
2022-09-09T04:24:24.230Z,3.03
2022-09-09T04:24:56.088Z,1.77
2022-09-09T04:25:29.065Z,3.53
2022-09-09T04:26:01.936Z,2.25
2022-09-09T04:26:33.975Z,1.70
2022-09-09T04:27:06.914Z,1.98
2022-09-09T04:27:38.689Z,2.10
2022-09-09T04:28:10.461Z,1.20
2022-09-09T04:28:43.321Z,2.78
2022-09-09T04:29:15.103Z,4.93
2022-09-09T04:29:48.199Z,2.65
2022-09-09T04:30:20.989Z,9.65
2022-09-09T04:30:53.263Z,12.68
2022-09-09T04:31:25.182Z,9.27
2022-09-09T04:31:58.052Z,2.83
2022-09-09T04:32:29.899Z,27.85
2022-09-09T04:33:01.654Z,9.35
2022-09-09T04:33:39.398Z,7.13
2022-09-09T04:34:12.030Z,8.05
2022-09-09T04:34:45.853Z,6.78
2022-09-09T04:35:18.017Z,4.28
2022-09-09T04:35:51.130Z,4.35
2022-09-09T04:36:24.524Z,3.70
2022-09-09T04:36:57.839Z,5.95
2022-09-09T04:37:29.701Z,2.88
2022-09-09T04:38:03.505Z,5.38
2022-09-09T04:38:35.298Z,2.38
2022-09-09T04:39:08.185Z,2.70
2022-09-09T04:39:39.997Z,1.50
2022-09-09T04:40:11.907Z,2.03
2022-09-09T04:40:45.443Z,2.88
2022-09-09T04:41:17.493Z,2.03
2022-09-09T04:41:50.779Z,1.52
2022-09-09T04:42:22.584Z,3.50
2022-09-09T04:42:54.393Z,1.90
2022-09-09T04:43:28.674Z,5.07
2022-09-09T04:44:01.633Z,1.30
2022-09-09T04:44:34.377Z,1.52
2022-09-09T04:45:08.773Z,8.07
2022-09-09T04:45:41.315Z,3.28
2022-09-09T04:46:14.141Z,1.90
2022-09-09T04:46:46.090Z,3.80
2022-09-09T04:47:18.498Z,3.28
2022-09-09T04:47:51.344Z,2.65
2022-09-09T04:48:23.605Z,1.23
2022-09-09T04:48:56.357Z,3.95
2022-09-09T04:49:28.130Z,10.68
2022-09-09T04:49:59.955Z,6.90
2022-09-09T04:50:32.823Z,6.55
2022-09-09T04:51:06.414Z,14.45
2022-09-09T04:51:39.885Z,29.70
2022-09-09T04:52:11.681Z,31.80
2022-09-09T04:52:43.673Z,23.77
2022-09-09T04:53:15.473Z,14.02
2022-09-09T04:53:49.720Z,14.70
2022-09-09T04:54:21.496Z,9.93
2022-09-09T04:54:54.927Z,9.13
2022-09-09T04:55:26.723Z,5.28
2022-09-09T04:56:08.146Z,3.63
2022-09-09T04:56:39.947Z,3.45
2022-09-09T04:57:15.353Z,3.03
2022-09-09T04:57:51.297Z,2.30
2022-09-09T04:58:24.516Z,3.30
2022-09-09T04:58:57.410Z,2.10
2022-09-09T04:59:29.202Z,2.53
2022-09-09T05:00:00.968Z,2.67
2022-09-09T05:00:36.379Z,2.15
2022-09-09T05:01:09.724Z,1.90
2022-09-09T05:01:43.360Z,1.83
2022-09-09T05:02:15.195Z,3.55
2022-09-09T05:02:47.983Z,4.90
2022-09-09T05:03:21.174Z,1.70
2022-09-09T05:03:54.045Z,2.10
2022-09-09T05:04:25.828Z,1.52
2022-09-09T05:04:58.969Z,3.05
2022-09-09T05:05:31.137Z,1.45
2022-09-09T05:06:07.978Z,1.77
2022-09-09T05:06:40.836Z,1.77
2022-09-09T05:07:12.641Z,1.60
2022-09-09T05:07:44.498Z,2.60
2022-09-09T05:08:17.302Z,4.32
2022-09-09T05:08:50.192Z,4.20
2022-09-09T05:09:21.955Z,3.78
2022-09-09T05:09:55.176Z,3.03
2022-09-09T05:10:27.202Z,13.93
2022-09-09T05:11:00.245Z,11.13
2022-09-09T05:11:35.447Z,13.50
2022-09-09T05:12:07.801Z,17.33
2022-09-09T05:12:39.587Z,10.98
2022-09-09T05:13:12.395Z,7.15
2022-09-09T05:13:44.995Z,2.65
2022-09-09T05:14:17.015Z,6.28
2022-09-09T05:14:49.749Z,3.72
2022-09-09T05:15:22.230Z,2.55
2022-09-09T05:15:56.090Z,2.42
2022-09-09T05:16:29.154Z,2.33
2022-09-09T05:17:01.084Z,3.15
2022-09-09T05:17:33.521Z,2.90
2022-09-09T05:18:06.293Z,2.20
2022-09-09T05:18:38.238Z,4.30
2022-09-09T05:19:10.175Z,2.85
2022-09-09T05:19:43.960Z,2.40
2022-09-09T05:20:17.558Z,3.60
2022-09-09T05:20:49.537Z,3.25
2022-09-09T05:21:23.944Z,3.10
2022-09-09T05:21:55.785Z,2.13
2022-09-09T05:22:27.769Z,2.80
2022-09-09T05:23:00.570Z,2.17
2022-09-09T05:23:32.781Z,2.15
2022-09-09T05:24:05.804Z,2.00
2022-09-09T05:24:37.645Z,4.10
2022-09-09T05:25:09.603Z,3.78
2022-09-09T05:25:42.625Z,3.63
2022-09-09T05:26:17.635Z,1.63
2022-09-09T05:26:49.773Z,2.45
2022-09-09T05:27:22.685Z,2.65
2022-09-09T05:27:54.721Z,1.60
2022-09-09T05:28:26.725Z,3.17
2022-09-09T05:29:01.270Z,4.30
2022-09-09T05:29:34.270Z,2.67
2022-09-09T05:30:07.076Z,2.47
2022-09-09T05:30:39.813Z,1.77
2022-09-09T05:31:14.913Z,1.95
2022-09-09T05:31:48.035Z,1.98
2022-09-09T05:32:19.898Z,1.60
2022-09-09T05:32:52.642Z,2.20
2022-09-09T05:33:25.222Z,1.85
2022-09-09T05:33:57.185Z,2.53
2022-09-09T05:34:30.117Z,2.25
2022-09-09T05:35:02.450Z,2.95
2022-09-09T05:35:34.369Z,2.80
2022-09-09T05:36:09.053Z,7.55
2022-09-09T05:36:40.923Z,2.63
2022-09-09T05:37:12.753Z,2.10
2022-09-09T05:37:46.885Z,2.20
2022-09-09T05:38:19.452Z,1.65
2022-09-09T05:38:51.489Z,2.47
2022-09-09T05:39:24.254Z,2.15
2022-09-09T05:39:56.130Z,2.38
2022-09-09T05:40:27.974Z,1.70
2022-09-09T05:41:01.276Z,3.55
2022-09-09T05:41:33.826Z,5.18
2022-09-09T05:42:07.272Z,4.20
2022-09-09T05:42:39.911Z,2.83
2022-09-09T05:43:11.669Z,2.53
2022-09-09T05:43:46.465Z,3.60
2022-09-09T05:44:18.497Z,2.83
2022-09-09T05:44:51.863Z,2.50
2022-09-09T05:45:24.993Z,2.83
2022-09-09T05:46:02.462Z,3.17
2022-09-09T05:46:36.641Z,2.08
2022-09-09T05:47:09.406Z,2.50
2022-09-09T05:47:41.225Z,1.80
2022-09-09T05:48:13.962Z,1.92
2022-09-09T05:48:47.512Z,1.73
2022-09-09T05:49:19.313Z,2.88
2022-09-09T05:49:52.117Z,2.72
2022-09-09T05:50:24.139Z,1.50
2022-09-09T05:50:57.169Z,2.13
2022-09-09T05:51:31.819Z,1.88
2022-09-09T05:52:04.836Z,1.77
2022-09-09T05:52:36.966Z,2.20
2022-09-09T05:53:09.705Z,2.85
2022-09-09T05:53:41.473Z,1.60
2022-09-09T05:54:16.240Z,1.50
2022-09-09T05:54:48.086Z,2.45
2022-09-09T05:55:19.870Z,1.70
2022-09-09T05:55:53.243Z,4.28
2022-09-09T05:56:26.678Z,14.18
2022-09-09T05:56:59.144Z,7.10
2022-09-09T05:57:31.935Z,13.82
2022-09-09T05:58:03.793Z,8.57
2022-09-09T05:58:36.289Z,8.77
2022-09-09T05:59:09.604Z,3.78
2022-09-09T05:59:41.409Z,4.55
2022-09-09T06:00:16.029Z,3.17
2022-09-09T06:00:48.909Z,2.33
2022-09-09T06:01:22.865Z,4.07
2022-09-09T06:01:57.191Z,3.28
2022-09-09T06:02:29.182Z,2.22
2022-09-09T06:03:01.205Z,2.70
2022-09-09T06:03:33.549Z,3.20
2022-09-09T06:04:06.284Z,2.70
2022-09-09T06:04:38.196Z,5.28
2022-09-09T06:05:11.642Z,2.60
2022-09-09T06:05:44.352Z,1.95
2022-09-09T06:06:18.473Z,1.67
2022-09-09T06:06:50.277Z,1.90
2022-09-09T06:07:23.009Z,2.65
2022-09-09T06:07:54.947Z,4.93
2022-09-09T06:08:27.123Z,1.88
2022-09-09T06:09:00.011Z,1.50
2022-09-09T06:09:31.942Z,2.25
2022-09-09T06:10:04.315Z,2.28
2022-09-09T06:10:37.186Z,2.65
2022-09-09T06:11:14.658Z,2.50
2022-09-09T06:11:47.574Z,2.20
2022-09-09T06:12:19.376Z,5.85
2022-09-09T06:12:53.818Z,4.43
2022-09-09T06:13:26.626Z,5.57
2022-09-09T06:13:58.542Z,10.40
2022-09-09T06:14:31.405Z,7.55
2022-09-09T06:15:04.694Z,6.90
2022-09-09T06:15:37.914Z,6.47
2022-09-09T06:16:11.447Z,7.15
2022-09-09T06:16:44.903Z,4.30
2022-09-09T06:17:19.048Z,5.63
2022-09-09T06:17:55.517Z,2.30
2022-09-09T06:18:27.538Z,3.17
2022-09-09T06:19:00.829Z,4.20
2022-09-09T06:19:32.581Z,3.30
2022-09-09T06:20:05.129Z,3.28
2022-09-09T06:20:37.877Z,3.60
2022-09-09T06:21:14.466Z,1.60
2022-09-09T06:21:46.269Z,3.95
2022-09-09T06:22:19.033Z,1.73
2022-09-09T06:22:50.851Z,1.90
2022-09-09T06:23:22.698Z,2.10
2022-09-09T06:23:59.095Z,1.73
2022-09-09T06:24:33.822Z,2.15
2022-09-09T06:25:06.794Z,1.65
2022-09-09T06:25:41.601Z,1.70
2022-09-09T06:26:15.419Z,2.45
2022-09-09T06:26:48.240Z,1.88
2022-09-09T06:27:20.051Z,3.10
2022-09-09T06:27:52.829Z,1.65
2022-09-09T06:28:26.001Z,2.58
2022-09-09T06:28:58.911Z,1.80
2022-09-09T06:29:31.691Z,3.60
2022-09-09T06:30:04.623Z,1.73
2022-09-09T06:30:37.116Z,3.35
2022-09-09T06:31:11.610Z,1.65
2022-09-09T06:31:46.435Z,2.08
2022-09-09T06:32:20.559Z,2.55
2022-09-09T06:32:52.330Z,2.38
2022-09-09T06:33:24.293Z,3.67
2022-09-09T06:33:57.066Z,2.30
2022-09-09T06:34:29.212Z,3.88
2022-09-09T06:35:02.216Z,2.55
2022-09-09T06:35:35.049Z,2.20
2022-09-09T06:36:08.072Z,3.72
2022-09-09T06:36:40.183Z,2.47
2022-09-09T06:37:13.116Z,3.97
2022-09-09T06:37:46.338Z,2.30
2022-09-09T06:38:19.720Z,4.32
2022-09-09T06:38:52.977Z,3.05
2022-09-09T06:39:24.838Z,7.72
2022-09-09T06:39:56.635Z,2.08
2022-09-09T06:40:29.778Z,3.38
2022-09-09T06:41:02.293Z,2.03
2022-09-09T06:41:35.137Z,1.40
2022-09-09T06:42:09.469Z,2.13
2022-09-09T06:42:41.226Z,2.03
2022-09-09T06:43:13.997Z,1.73
2022-09-09T06:43:45.863Z,2.40
2022-09-09T06:44:18.650Z,2.20
2022-09-09T06:44:50.464Z,3.22
2022-09-09T06:45:22.286Z,2.47
2022-09-09T06:45:56.272Z,2.20
2022-09-09T06:46:30.120Z,2.75
2022-09-09T06:47:02.954Z,2.47
2022-09-09T06:47:36.141Z,1.33
2022-09-09T06:48:07.900Z,2.55
2022-09-09T06:48:42.526Z,1.90
2022-09-09T06:49:14.750Z,1.88
2022-09-09T06:49:48.447Z,1.30
2022-09-09T06:50:21.770Z,2.90
2022-09-09T06:51:01.734Z,2.28
2022-09-09T06:51:36.708Z,2.03
2022-09-09T06:52:10.450Z,1.40
2022-09-09T06:52:42.371Z,2.72
2022-09-09T06:53:20.089Z,2.22
2022-09-09T06:53:54.504Z,1.33
2022-09-09T06:54:27.400Z,2.90
2022-09-09T06:54:59.621Z,1.77
2022-09-09T06:55:31.404Z,2.15
2022-09-09T06:56:18.832Z,2.45
2022-09-09T06:56:50.923Z,1.27
2022-09-09T06:57:39.055Z,2.38
2022-09-09T06:58:10.840Z,1.63
2022-09-09T06:58:43.960Z,2.15
2022-09-09T06:59:16.686Z,6.47
2022-09-09T06:59:48.469Z,1.48
2022-09-09T07:00:20.237Z,1.38
2022-09-09T07:00:53.853Z,3.17
2022-09-09T07:01:27.932Z,13.20
2022-09-09T07:02:00.716Z,12.75
2022-09-09T07:02:32.614Z,10.18
2022-09-09T07:03:07.033Z,11.73
2022-09-09T07:03:39.871Z,6.97
2022-09-09T07:04:14.334Z,4.85
2022-09-09T07:04:47.704Z,1.80
2022-09-09T07:05:19.481Z,3.40
2022-09-09T07:05:58.862Z,1.55
2022-09-09T07:06:32.296Z,1.60
2022-09-09T07:07:05.223Z,1.55
2022-09-09T07:07:37.672Z,2.00
2022-09-09T07:08:09.608Z,2.08
2022-09-09T07:08:42.537Z,2.00
2022-09-09T07:09:16.884Z,1.67
2022-09-09T07:09:50.184Z,1.10
2022-09-09T07:10:21.973Z,1.35
2022-09-09T07:10:54.689Z,3.72
2022-09-09T07:11:28.841Z,2.63
2022-09-09T07:12:01.065Z,2.03
2022-09-09T07:12:33.794Z,5.32
2022-09-09T07:13:05.581Z,2.40
2022-09-09T07:13:37.512Z,2.10
2022-09-09T07:14:13.826Z,1.90
2022-09-09T07:14:46.270Z,4.30
2022-09-09T07:15:19.567Z,3.72
2022-09-09T07:15:51.370Z,5.68
2022-09-09T07:16:25.774Z,7.13
2022-09-09T07:16:59.802Z,7.07
2022-09-09T07:17:31.841Z,6.85
2022-09-09T07:18:06.264Z,6.35
2022-09-09T07:18:38.511Z,7.07
2022-09-09T07:19:10.681Z,4.45
2022-09-09T07:19:44.104Z,3.10
2022-09-09T07:20:16.375Z,3.65
2022-09-09T07:20:55.035Z,4.50
2022-09-09T07:21:29.250Z,2.28
2022-09-09T07:22:01.009Z,1.85
2022-09-09T07:22:33.986Z,1.85
2022-09-09T07:23:05.803Z,2.42
2022-09-09T07:23:37.573Z,2.35
2022-09-09T07:24:11.551Z,2.90
2022-09-09T07:24:45.959Z,2.58
2022-09-09T07:25:18.939Z,3.92
2022-09-09T07:25:51.328Z,4.10
2022-09-09T07:26:25.082Z,2.88
2022-09-09T07:26:57.875Z,2.58
2022-09-09T07:27:29.745Z,2.00
2022-09-09T07:28:01.853Z,3.67
2022-09-09T07:28:35.465Z,3.45
2022-09-09T07:29:07.972Z,4.35
2022-09-09T07:29:40.712Z,4.85
2022-09-09T07:30:19.801Z,2.35
2022-09-09T07:30:58.224Z,2.92
2022-09-09T07:31:33.224Z,3.13
2022-09-09T07:32:05.437Z,1.45
2022-09-09T07:32:37.353Z,1.33
2022-09-09T07:33:11.600Z,2.70
2022-09-09T07:33:44.330Z,3.88
2022-09-09T07:34:17.131Z,1.58
2022-09-09T07:34:48.937Z,2.47
2022-09-09T07:35:21.103Z,1.45
2022-09-09T07:35:54.208Z,2.97
2022-09-09T07:36:32.661Z,1.50
2022-09-09T07:37:05.064Z,2.08
2022-09-09T07:37:38.612Z,3.17
2022-09-09T07:38:10.415Z,2.38
2022-09-09T07:38:44.480Z,1.77
2022-09-09T07:39:18.333Z,2.25
2022-09-09T07:39:52.100Z,1.55
2022-09-09T07:40:23.928Z,1.33
2022-09-09T07:41:05.918Z,1.08
2022-09-09T07:41:40.685Z,1.95
2022-09-09T07:42:14.358Z,2.17
2022-09-09T07:42:47.263Z,1.42
2022-09-09T07:43:19.598Z,1.33